Terminal Aerodrome Forecast
Issued by NWS

Home | Current Version | Previous Version | Text Only | Print | Product List | Glossary On
Versions: 1 2 3 4 5 6 7 8 9 10 11 12 13 14 15 16 17 18 19 20 21
000
FTPA31 PHFO 240500
TAFMDY
TAF
PMDY 240524Z 2406/2506 10008KT P6SM VCSH SCT025
      TEMPO 2406/2410 -RA BKN025
     FM241000 12007KT P6SM SCT025
      AMD LTD TO CLD AND WIND=

USA.gov is the U.S. government's official web portal to all federal, state and local government web resources and services.